Time;durP1;ratioP1;P1;durP2;ratioP2;P2;SDS_P1;SDS_P2;PMS_P1;PMS_P2;Temp;Humidity;BMP_temperature;BMP_pressure;BME280_temperature;BME280_humidity;BME280_pressure;Samples;Min_cycle;Max_cycle;Signal;HPM_P1;HPM_P2
2021/01/28 00:00:42;;;;;;;32.55;17.90;;;9.60;99.90;;;9.29;82.59;100818.13;5093321;28;20044;-71
2021/01/28 00:03:13;;;;;;;43.67;23.77;;;9.60;99.90;;;9.92;83.07;100906.09;5093237;28;20430;-71
2021/01/28 00:05:45;;;;;;;38.83;22.58;;;9.60;99.90;;;9.97;83.19;100904.31;5092906;28;20048;-72
2021/01/28 00:08:15;;;;;;;42.67;23.63;;;9.70;99.90;;;10.01;83.36;100905.19;5093479;28;20075;-72
2021/01/28 00:10:43;;;;;;;43.72;23.98;;;9.70;99.90;;;9.94;83.31;100904.34;5093033;28;20044;-72
2021/01/28 00:13:12;;;;;;;53.72;30.92;;;9.80;99.90;;;10.06;83.50;100916.66;5093226;28;20081;-72
2021/01/28 00:15:42;;;;;;;45.70;26.70;;;9.80;99.90;;;10.11;83.29;100911.38;5093055;28;20048;-72
2021/01/28 00:18:14;;;;;;;49.03;25.95;;;9.80;99.90;;;10.13;83.50;100907.84;5074625;28;20052;-72
2021/01/28 00:20:44;;;;;;;51.13;27.83;;;9.90;99.90;;;10.11;83.60;100896.41;5092923;28;20052;-72
2021/01/28 00:23:12;;;;;;;51.08;28.38;;;9.90;99.90;;;10.15;83.48;100907.84;5093018;28;20432;-72
2021/01/28 00:25:41;;;;;;;48.70;28.30;;;9.90;99.90;;;10.16;83.33;100888.47;5093206;28;20036;-72
2021/01/28 00:28:12;;;;;;;47.83;27.88;;;9.90;99.90;;;10.13;83.54;100892.00;5092866;28;20132;-72
2021/01/28 00:30:43;;;;;;;51.58;28.75;;;9.90;99.90;;;10.18;83.26;100873.50;5074859;28;20056;-72
2021/01/28 00:33:14;;;;;;;45.83;27.27;;;9.90;99.90;;;10.16;83.31;100868.22;5093095;28;20055;-72
2021/01/28 00:35:45;;;;;;;44.97;27.33;;;9.90;99.90;;;10.11;83.83;100848.84;5092882;28;20099;-72
2021/01/28 00:38:17;;;;;;;44.03;21.20;;;9.90;99.90;;;9.88;82.75;100846.22;5092847;28;20500;-72
2021/01/28 00:40:44;;;;;;;46.58;19.15;;;9.70;99.90;;;9.29;83.35;100768.00;5092657;28;20055;-72
2021/01/28 00:43:14;;;;;;;35.03;21.70;;;9.40;99.90;;;9.72;83.96;100847.13;5074510;28;20037;-72
2021/01/28 00:45:42;;;;;;;32.10;21.13;;;9.30;99.90;;;9.74;84.30;100844.47;5092678;28;20386;-72
2021/01/28 00:48:11;;;;;;;30.67;21.13;;;9.40;99.90;;;9.71;84.38;100832.19;5092791;28;20048;-72
2021/01/28 00:50:40;;;;;;;49.35;23.40;;;9.40;99.90;;;9.59;84.93;100824.28;5074688;28;20572;-72
2021/01/28 00:53:09;;;;;;;35.55;23.88;;;9.30;99.90;;;9.57;85.16;100822.50;5074682;28;20051;-72
2021/01/28 00:55:40;;;;;;;39.33;23.83;;;9.30;99.90;;;9.63;85.44;100819.84;5074694;28;20051;-72
2021/01/28 00:58:17;;;;;;;40.97;23.67;;;9.30;99.90;;;9.65;85.38;100826.91;5092616;28;20050;-72
2021/01/28 01:00:47;;;;;;;36.92;22.70;;;9.40;99.90;;;9.64;85.02;100811.06;5074705;28;20420;-71
2021/01/28 01:03:19;;;;;;;37.03;23.02;;;9.40;99.90;;;9.63;85.37;100810.19;5074475;28;20048;-72
2021/01/28 01:05:49;;;;;;;38.78;23.88;;;9.30;99.90;;;9.67;85.24;100804.00;5092857;28;20083;-72
2021/01/28 01:08:31;;;;;;;;;;;9.40;99.90;;;9.63;85.43;100796.09;5074684;28;20044;-72
2021/01/28 01:11:11;;;;;;;;;;;9.40;99.90;;;9.36;85.61;100770.63;5074913;28;19920;-72
2021/01/28 01:13:42;;;;;;;;;;;9.30;99.90;;;9.55;85.38;100803.13;5092978;28;19934;-72
2021/01/28 01:16:20;;;;;;;35.13;21.67;;;9.30;99.90;;;9.58;85.51;100803.16;5092830;28;19919;-72
2021/01/28 01:18:59;;;;;;;41.10;24.08;;;9.30;99.90;;;9.54;86.11;100806.69;5096613;28;20435;-72
2021/01/28 01:21:39;;;;;;;43.08;23.33;;;9.30;99.90;;;9.59;86.07;100802.25;5078301;28;20044;-72
2021/01/28 01:24:16;;;;;;;40.17;23.70;;;9.40;99.90;;;9.65;85.71;100802.25;5078101;28;20056;-72
2021/01/28 01:26:44;;;;;;;42.45;24.95;;;9.40;99.90;;;9.65;85.74;100795.22;5096116;28;20055;-72
2021/01/28 01:29:14;;;;;;;42.88;24.15;;;9.40;99.90;;;9.69;85.29;100783.75;5095884;28;20048;-72
2021/01/28 01:32:00;;;;;;;39.33;24.27;;;9.40;99.90;;;9.53;85.54;100776.75;5096092;28;20528;-72
2021/01/28 01:34:33;;;;;;;38.83;22.33;;;9.30;99.90;;;8.99;85.92;100668.63;5077873;28;20048;-72
2021/01/28 01:37:05;;;;;;;41.78;23.60;;;9.30;99.90;;;9.60;85.85;100757.34;5077690;28;20350;-72
2021/01/28 01:39:35;;;;;;;42.33;24.20;;;9.30;99.90;;;9.39;86.11;100738.94;5077604;28;20048;-72
2021/01/28 01:42:05;;;;;;;41.05;23.83;;;9.20;99.90;;;9.35;86.81;100738.97;5077712;28;20040;-71
2021/01/28 01:44:34;;;;;;;44.83;25.00;;;9.00;99.90;;;9.21;86.79;100691.47;5077709;28;20063;-72
2021/01/28 01:47:38;;;;;;;45.38;25.70;;;9.10;99.90;;;9.46;86.95;100730.13;5095566;28;20078;-72
2021/01/28 01:50:22;;;;;;;47.22;24.17;;;9.20;99.90;;;9.41;86.48;100710.75;5077413;28;20059;-72
2021/01/28 01:52:50;;;;;;;45.58;24.17;;;9.20;99.90;;;9.27;86.52;100702.00;5077657;28;20068;-72
2021/01/28 01:55:19;;;;;;;54.63;23.77;;;9.10;99.90;;;8.73;88.19;100683.59;5077475;28;20044;-72
2021/01/28 01:58:03;;;;;;;45.97;24.48;;;8.70;99.90;;;8.62;89.75;100688.88;5077367;28;20051;-71
2021/01/28 02:00:35;;;;;;;50.88;26.48;;;8.50;99.90;;;8.59;90.25;100682.72;5077156;28;20094;-72
2021/01/28 02:03:12;;;;;;;52.08;26.08;;;8.40;99.90;;;8.36;91.42;100658.09;5077458;28;20538;-72
2021/01/28 02:06:08;;;;;;;60.55;28.58;;;8.20;99.90;;;8.26;92.22;100661.59;5095388;28;20055;-71
2021/01/28 02:08:56;;;;;;;57.72;28.40;;;8.10;99.90;;;8.21;93.06;100649.25;5095149;28;20607;-71
2021/01/28 02:11:49;;;;;;;63.80;29.58;;;8.00;99.90;;;8.36;93.19;100642.28;5077235;28;20052;-72
2021/01/28 02:14:52;;;;;;;62.63;30.45;;;8.10;99.90;;;8.53;93.07;100661.63;5082655;28;20055;-71
2021/01/28 02:17:28;;;;;;;64.05;29.92;;;8.30;99.90;;;8.46;92.16;100675.69;5076947;28;20052;-71
2021/01/28 02:20:54;;;;;;;69.00;30.50;;;8.30;99.90;;;8.31;93.39;100673.91;5077034;28;20131;-72
2021/01/28 02:23:41;;;;;;;74.65;29.58;;;8.10;99.90;;;8.07;92.95;100608.00;5076756;28;20565;-71
2021/01/28 02:26:15;;;;;;;55.67;28.58;;;8.10;99.90;;;8.65;93.03;100651.09;5076879;28;20547;-72
2021/01/28 02:28:43;;;;;;;65.30;31.42;;;8.40;99.90;;;8.70;92.05;100637.03;5076382;28;20060;-71
2021/01/28 02:31:11;;;;;;;73.03;30.83;;;8.50;99.90;;;8.71;91.52;100638.75;5076683;28;20135;-71
2021/01/28 02:33:48;;;;;;;74.72;32.55;;;8.50;99.90;;;8.71;91.51;100633.50;5076576;28;20132;-71
2021/01/28 02:36:30;;;;;;;66.70;30.48;;;8.60;99.90;;;8.73;91.01;100638.78;5076781;28;20048;-71
2021/01/28 02:39:11;;;;;;;66.72;31.40;;;8.50;99.90;;;8.72;91.41;100632.63;5076612;28;20436;-72
2021/01/28 02:41:43;;;;;;;58.60;28.50;;;8.50;99.90;;;8.66;91.54;100637.00;5076429;28;20040;-71
2021/01/28 02:44:21;;;;;;;74.47;29.80;;;8.40;99.90;;;8.77;91.06;100630.84;5076345;28;20059;-72
2021/01/28 02:47:18;;;;;;;63.65;29.33;;;8.50;99.90;;;8.67;90.76;100636.16;5076414;28;20063;-72
2021/01/28 02:50:12;;;;;;;144.05;29.52;;;8.50;99.90;;;8.70;91.05;100637.03;5090232;28;20055;-71
2021/01/28 02:52:40;;;;;;;131.43;29.95;;;8.50;99.90;;;8.43;91.55;100625.59;5076123;28;20044;-71
2021/01/28 02:55:15;;;;;;;120.70;30.67;;;8.30;99.90;;;8.32;92.23;100624.72;5076343;28;20131;-71
2021/01/28 02:57:44;;;;;;;107.57;29.60;;;8.10;99.90;;;8.31;92.49;100622.94;5094425;28;20076;-71
2021/01/28 03:00:21;;;;;;;156.63;29.10;;;8.00;99.90;;;8.26;92.56;100614.19;5094222;28;20089;-71
2021/01/28 03:02:50;;;;;;;150.35;29.13;;;8.00;99.90;;;8.17;93.12;100602.72;5094209;28;20036;-71
2021/01/28 03:05:28;;;;;;;112.80;28.35;;;7.90;99.90;;;8.21;93.70;100609.75;5076246;28;20563;-71
2021/01/28 03:07:56;;;;;;;121.22;28.55;;;7.90;99.90;;;8.25;92.88;100613.28;5076101;28;20531;-71
2021/01/28 03:10:24;;;;;;;69.13;26.90;;;8.00;99.90;;;8.35;93.57;100601.00;5075816;28;20051;-71
2021/01/28 03:13:08;;;;;;;88.28;28.10;;;8.00;99.90;;;8.33;93.21;100605.38;5075917;28;20044;-71
2021/01/28 03:15:44;;;;;;;69.53;26.17;;;8.10;99.90;;;8.48;92.96;100598.34;5076005;28;20489;-71
2021/01/28 03:18:12;;;;;;;62.13;26.85;;;8.20;99.90;;;8.54;92.71;100592.19;5075669;28;20463;-71
2021/01/28 03:20:41;;;;;;;79.85;27.40;;;8.30;99.90;;;8.63;92.38;100581.66;5094048;28;20163;-71
2021/01/28 03:23:25;;;;;;;159.80;31.33;;;8.40;99.90;;;8.38;92.11;100580.78;5075666;28;20512;-70
2021/01/28 03:26:06;;;;;;;;;;;8.30;99.90;;;7.64;92.46;100457.00;5094172;28;20090;-71
2021/01/28 03:28:34;;;;;;;59.30;28.08;;;8.30;99.90;;;8.61;92.74;100571.13;5092321;28;19920;-71
2021/01/28 03:31:07;;;;;;;96.78;29.75;;;8.30;99.90;;;8.78;92.25;100565.81;5075696;28;20036;-71
2021/01/28 03:33:35;;;;;;;65.50;30.83;;;8.60;99.90;;;8.61;91.67;100536.88;5093638;28;20052;-71
2021/01/28 03:36:03;;;;;;;65.82;30.10;;;8.60;99.90;;;8.96;91.79;100561.34;5075334;28;20075;-71
2021/01/28 03:38:34;;;;;;;66.55;31.98;;;8.70;99.90;;;9.06;91.09;100562.22;5075256;28;20148;-70
2021/01/28 03:41:02;;;;;;;69.38;31.95;;;8.80;99.90;;;9.16;90.61;100550.75;5074483;28;20084;-71
2021/01/28 03:43:30;;;;;;;67.57;30.70;;;9.00;99.90;;;9.23;90.32;100544.59;5075465;28;20044;-71
2021/01/28 03:45:58;;;;;;;71.38;31.77;;;9.10;99.90;;;9.28;90.19;100533.97;5075208;28;20044;-70
2021/01/28 03:48:30;;;;;;;65.10;31.25;;;9.20;99.90;;;9.33;89.80;100530.44;5075215;28;20047;-71
2021/01/28 03:51:08;;;;;;;163.23;32.90;;;9.20;99.90;;;8.96;89.52;100520.94;5093607;28;20047;-71
2021/01/28 03:53:52;;;;;;;223.85;34.60;;;9.10;99.90;;;8.49;90.13;100499.09;5075291;28;20052;-71
2021/01/28 03:56:22;;;;;;;175.13;30.77;;;8.70;99.90;;;8.37;91.78;100512.28;5093427;28;20484;-71
2021/01/28 03:58:50;;;;;;;146.27;28.13;;;8.30;99.90;;;8.15;92.33;100503.47;5093261;28;20040;-71
2021/01/28 04:01:37;;;;;;;228.00;29.60;;;8.10;99.90;;;7.85;93.72;100478.06;5093314;28;20533;-71
2021/01/28 04:04:22;;;;;;;73.72;25.50;;;7.90;99.90;;;8.06;94.03;100485.06;5075045;28;20532;-72
2021/01/28 04:07:18;;;;;;;102.78;25.00;;;7.80;99.90;;;7.81;94.65;100476.28;5092426;28;20056;-71
2021/01/28 04:09:48;;;;;;;76.70;23.45;;;7.70;99.90;;;7.51;95.52;100465.72;5074871;28;20046;-71
2021/01/28 04:12:19;;;;;;;107.47;24.83;;;7.50;99.90;;;7.55;96.70;100467.50;5075134;28;20051;-71
2021/01/28 04:15:15;;;;;;;68.70;22.38;;;7.40;99.90;;;7.70;97.05;100466.63;5069239;28;20056;-71
2021/01/28 04:17:48;;;;;;;71.18;23.05;;;7.50;99.90;;;7.57;96.99;100468.38;5074669;28;20063;-71
2021/01/28 04:20:25;;;;;;;56.55;21.77;;;7.40;99.90;;;7.42;97.16;100426.25;5074724;28;20048;-71
2021/01/28 04:22:57;;;;;;;64.30;20.50;;;7.40;99.90;;;7.40;97.52;100433.28;5074931;28;20063;-71
2021/01/28 04:25:29;;;;;;;49.35;19.02;;;7.30;99.90;;;7.54;97.91;100430.66;5092958;28;20047;-71
2021/01/28 04:27:58;;;;;;;155.15;24.05;;;7.30;99.90;;;7.46;97.72;100421.88;5074609;28;20519;-71
2021/01/28 04:30:39;;;;;;;35.63;18.00;;;7.30;99.90;;;7.54;97.61;100409.59;5074582;28;20842;-71
2021/01/28 04:33:09;;;;;;;81.63;20.85;;;7.40;99.90;;;7.46;97.31;100395.56;5092975;28;20051;-71
2021/01/28 04:36:03;;;;;;;50.67;17.98;;;7.40;99.90;;;7.47;97.54;100390.28;5074697;28;20058;-71
2021/01/28 04:38:31;;;;;;;103.43;19.33;;;7.40;99.90;;;7.52;97.48;100385.94;5074593;28;20056;-71
2021/01/28 04:41:11;;;;;;;41.33;17.80;;;7.40;99.90;;;7.48;97.45;100384.16;5074413;28;20401;-71
2021/01/28 04:43:41;;;;;;;50.57;18.50;;;7.40;99.90;;;7.48;97.68;100368.38;5074777;28;20094;-70
2021/01/28 04:46:39;;;;;;;35.22;18.15;;;7.40;99.90;;;7.16;98.48;100351.72;5087575;28;20056;-70
2021/01/28 04:49:35;;;;;;;48.65;18.48;;;7.20;99.90;;;7.41;98.61;100350.84;5053383;28;20055;-71
2021/01/28 04:52:23;;;;;;;50.70;18.97;;;7.30;99.90;;;7.38;98.47;100366.63;5095829;28;20055;-71
2021/01/28 04:55:21;;;;;;;53.75;19.08;;;7.30;99.90;;;7.30;98.42;100342.94;5096585;28;20055;-72
2021/01/28 04:57:53;;;;;;;39.80;18.85;;;7.30;99.90;;;7.20;98.86;100324.56;5078695;28;20139;-71
2021/01/28 05:00:37;;;;;;;63.88;20.33;;;7.10;99.90;;;7.34;99.47;100321.94;5078578;28;20131;-71
2021/01/28 05:03:24;;;;;;;39.10;19.20;;;7.20;99.90;;;7.34;99.66;100308.78;5078386;28;20489;-69
2021/01/28 05:06:15;;;;;;;81.13;22.37;;;7.20;99.90;;;7.34;99.73;100293.00;5078488;28;20471;-69
2021/01/28 05:09:06;;;;;;;85.15;21.25;;;7.20;99.90;;;7.32;99.86;100276.34;5067142;28;20087;-69
2021/01/28 05:12:22;;;;;;;40.13;20.13;;;7.20;99.90;;;7.30;99.90;100263.16;5096066;28;20139;-69
2021/01/28 05:15:19;;;;;;;44.63;21.03;;;7.20;99.90;;;7.20;100.00;100264.06;5078277;28;20044;-69
2021/01/28 05:18:23;;;;;;;59.27;21.53;;;7.10;99.90;;;7.18;100.00;100247.41;5096407;28;20459;-69
2021/01/28 05:21:22;;;;;;;47.38;23.27;;;7.10;99.90;;;7.16;100.00;100202.69;5095864;28;20051;-69
2021/01/28 05:24:33;;;;;;;46.50;21.92;;;7.30;99.90;;;7.18;100.00;100239.53;5077881;28;20052;-69
2021/01/28 05:27:11;;;;;;;43.22;22.10;;;7.10;99.90;;;7.25;100.00;100228.09;5077819;28;20052;-69
2021/01/28 05:29:42;;;;;;;50.33;23.97;;;7.20;99.90;;;7.24;100.00;100224.59;5078096;28;20040;-69
2021/01/28 05:32:35;;;;;;;47.47;23.87;;;7.20;99.90;;;7.24;100.00;100189.53;5077943;28;20059;-69
2021/01/28 05:35:28;;;;;;;60.70;27.67;;;7.30;99.90;;;7.21;100.00;100202.69;5095922;28;20047;-69
2021/01/28 05:38:12;;;;;;;50.70;26.00;;;7.20;99.90;;;7.24;100.00;100202.66;5078073;28;20048;-69
2021/01/28 05:40:55;;;;;;;52.28;25.05;;;7.10;99.90;;;7.37;100.00;100200.91;5077567;28;20048;-69
2021/01/28 05:43:32;;;;;;;45.60;25.67;;;7.30;99.90;;;7.36;100.00;100191.25;5077458;28;20051;-68
2021/01/28 05:46:14;;;;;;;49.22;26.38;;;7.30;99.90;;;6.85;100.00;100116.00;5077762;28;20040;-69
2021/01/28 05:49:08;;;;;;;50.05;25.42;;;7.20;99.90;;;7.32;100.00;100182.50;5077637;28;20545;-69
2021/01/28 05:51:50;;;;;;;45.27;25.77;;;7.30;99.90;;;7.52;100.00;100183.31;5095552;28;20409;-68
2021/01/28 05:55:08;;;;;;;48.45;25.83;;;7.40;99.90;;;7.59;100.00;100189.47;5077356;28;20048;-70
2021/01/28 05:57:53;;;;;;;55.30;25.67;;;7.50;99.90;;;7.58;100.00;100175.41;5077352;28;20044;-70
2021/01/28 06:00:34;;;;;;;48.60;27.73;;;7.50;99.90;;;7.64;100.00;100193.81;5077864;28;20052;-69
2021/01/28 06:03:42;;;;;;;45.13;25.10;;;7.60;99.90;;;7.54;100.00;100183.31;5076362;28;20069;-71
2021/01/28 06:07:30;;;;;;;41.93;24.50;;;7.50;99.90;;;7.46;100.00;100170.19;5095572;28;20110;-70
2021/01/28 06:10:34;;;;;;;50.67;27.60;;;7.40;99.90;;;7.48;100.00;100157.91;5077269;28;20048;-70
2021/01/28 06:13:56;;;;;;;53.20;29.17;;;7.40;99.90;;;7.52;100.00;100158.75;5095518;28;20455;-69
2021/01/28 06:17:16;;;;;;;53.63;28.37;;;7.40;99.90;;;7.46;100.00;100154.41;5049752;28;20060;-69
2021/01/28 06:20:44;;;;;;;51.47;28.90;;;7.40;99.90;;;7.46;100.00;100148.25;5065287;28;20044;-69
2021/01/28 06:23:37;;;;;;;47.28;28.42;;;7.40;99.90;;;7.61;100.00;100138.56;5076728;28;20378;-68
2021/01/28 06:26:33;;;;;;;49.40;27.88;;;7.50;99.90;;;7.62;100.00;100131.53;5076893;28;20040;-69
2021/01/28 06:29:41;;;;;;;50.85;26.13;;;7.50;99.90;;;7.75;100.00;100109.53;5076765;28;20153;-70
2021/01/28 06:32:35;;;;;;;46.58;26.70;;;7.60;99.90;;;7.86;100.00;100108.59;5076863;28;20048;-68
2021/01/28 06:35:43;;;;;;;45.15;25.90;;;7.80;99.90;;;7.44;100.00;100053.56;5095077;28;20137;-68
2021/01/28 06:39:20;;;;;;;43.50;25.63;;;7.60;99.90;;;7.71;100.00;100068.31;5076694;28;20148;-67
2021/01/28 06:42:21;;;;;;;36.13;22.67;;;7.70;99.90;;;7.87;99.88;100059.44;5094569;28;20546;-67
2021/01/28 06:45:19;;;;;;;36.22;21.35;;;7.80;99.90;;;7.86;99.48;100050.69;5076771;28;20048;-68
2021/01/28 06:48:14;;;;;;;35.97;20.65;;;7.90;99.90;;;7.79;98.91;100040.19;5093730;28;20133;-68
2021/01/28 06:50:56;;;;;;;26.88;17.73;;;7.70;99.90;;;7.68;98.55;100032.41;5076278;28;20078;-68
2021/01/28 06:53:30;;;;;;;25.33;16.02;;;7.70;99.90;;;7.58;99.51;100029.81;5076335;28;20044;-69
2021/01/28 06:56:32;;;;;;;27.13;15.60;;;7.60;99.90;;;7.22;100.00;100022.97;5037752;28;20064;-68
2021/01/28 06:59:15;;;;;;;27.17;17.10;;;7.30;99.90;;;7.26;100.00;100020.34;5094554;28;20048;-68
2021/01/28 07:01:58;;;;;;;22.43;15.70;;;7.20;99.90;;;7.23;100.00;100027.38;5076014;28;20040;-68
2021/01/28 07:04:53;;;;;;;23.58;16.27;;;7.20;99.90;;;7.35;100.00;100014.16;5094166;28;20055;-68
2021/01/28 07:07:30;;;;;;;25.33;16.60;;;7.20;99.90;;;7.20;100.00;100011.63;5076183;28;20081;-68
2021/01/28 07:10:32;;;;;;;25.30;16.90;;;7.20;99.90;;;7.18;100.00;100014.22;5090782;28;20099;-68
2021/01/28 07:13:30;;;;;;;23.83;16.43;;;7.10;99.90;;;7.24;100.00;100011.56;5054909;28;20405;-68
2021/01/28 07:16:35;;;;;;;24.77;16.67;;;7.20;99.90;;;7.16;100.00;100015.16;5088752;28;20052;-68
2021/01/28 07:19:10;;;;;;;24.37;16.80;;;7.10;99.90;;;7.07;100.00;100005.53;5093802;28;20382;-68
2021/01/28 07:21:46;;;;;;;29.65;18.27;;;7.00;99.90;;;7.17;100.00;99999.34;5093715;28;20072;-68
2021/01/28 07:24:34;;;;;;;25.70;17.40;;;7.10;99.90;;;7.21;100.00;100002.84;5094087;28;20060;-68
2021/01/28 07:27:05;;;;;;;29.47;17.27;;;7.10;99.90;;;7.22;100.00;99997.56;5093827;28;20048;-68
2021/01/28 07:29:55;;;;;;;29.60;17.58;;;7.10;99.90;;;7.15;100.00;99994.97;5093831;28;20800;-68
2021/01/28 07:32:54;;;;;;;26.38;16.83;;;7.10;99.90;;;7.25;100.00;100004.56;5093639;28;20573;-68
2021/01/28 07:35:46;;;;;;;28.57;16.63;;;7.20;99.90;;;7.19;100.00;100001.97;5093655;28;20055;-68
2021/01/28 07:38:54;;;;;;;23.63;15.00;;;7.10;99.90;;;7.23;100.00;99994.06;5093337;28;20082;-68
2021/01/28 07:41:54;;;;;;;22.38;15.27;;;7.10;99.90;;;7.21;100.00;100000.19;5093675;28;20117;-68
2021/01/28 07:44:58;;;;;;;21.10;14.63;;;7.20;99.90;;;7.25;100.00;100005.44;5093166;28;20117;-68
2021/01/28 07:47:59;;;;;;;20.80;14.87;;;7.20;99.90;;;7.35;100.00;100002.75;5075361;28;20048;-68
2021/01/28 07:51:29;;;;;;;19.58;13.93;;;7.20;99.90;;;7.44;100.00;99992.19;5093119;28;20052;-68
2021/01/28 07:53:57;;;;;;;20.60;13.35;;;7.40;99.90;;;7.49;100.00;99990.41;5093249;28;20036;-68
2021/01/28 07:56:59;;;;;;;13.93;11.10;;;7.40;99.90;;;7.22;100.00;99988.78;5075094;28;20144;-68
2021/01/28 07:59:38;;;;;;;16.43;11.10;;;7.20;99.90;;;7.26;100.00;99978.25;5093427;28;20052;-68
2021/01/28 08:02:18;;;;;;;15.53;10.07;;;7.20;99.90;;;7.20;100.00;99975.66;5075101;28;20047;-68
2021/01/28 08:04:50;;;;;;;14.70;10.18;;;7.10;99.90;;;7.19;100.00;99952.00;5093246;28;20052;-67
2021/01/28 08:07:24;;;;;;;15.88;10.73;;;7.10;99.90;;;7.35;100.00;99956.31;5093273;28;20123;-68
2021/01/28 08:09:54;;;;;;;13.50;10.55;;;7.20;99.90;;;7.24;100.00;99966.00;5093190;28;20051;-68
2021/01/28 08:12:31;;;;;;;14.85;10.50;;;7.20;99.90;;;7.13;100.00;99937.16;5092927;28;20040;-68
2021/01/28 08:15:01;;;;;;;15.18;9.30;;;7.10;99.90;;;7.01;100.00;99912.66;5093112;28;20032;-68
2021/01/28 08:17:32;;;;;;;12.90;9.98;;;7.10;99.90;;;6.87;100.00;99880.34;5093081;28;20062;-68
2021/01/28 08:20:24;;;;;;;13.73;9.87;;;7.10;99.90;;;7.06;100.00;99900.38;5092842;28;20052;-69
2021/01/28 08:22:54;;;;;;;;;;;7.10;99.90;;;7.30;100.00;99916.88;5093616;28;20058;-68
2021/01/28 08:25:23;;;;;;;13.38;9.57;;;7.20;99.90;;;7.17;100.00;99912.56;5092592;28;19920;-68
2021/01/28 08:27:51;;;;;;;15.43;10.85;;;7.20;99.90;;;7.22;100.00;99909.91;5092720;28;20405;-68
2021/01/28 08:30:23;;;;;;;14.00;10.40;;;7.20;99.90;;;7.20;100.00;99903.81;5092713;28;20064;-69
2021/01/28 08:32:56;;;;;;;12.90;10.30;;;7.10;99.90;;;7.21;100.00;99910.78;5093020;28;20044;-68
2021/01/28 08:35:29;;;;;;;14.35;11.00;;;7.20;99.90;;;6.93;100.00;99877.69;5092747;28;20044;-68
2021/01/28 08:38:17;;;;;;;15.93;10.93;;;7.10;99.90;;;7.01;100.00;99899.53;5092874;28;20047;-68
2021/01/28 08:40:57;;;;;;;15.82;11.52;;;7.00;99.90;;;7.03;100.00;99889.88;5093031;28;20055;-68
2021/01/28 08:43:24;;;;;;;16.83;12.00;;;7.00;99.90;;;7.18;100.00;99895.06;5092872;28;20040;-68
2021/01/28 08:46:08;;;;;;;17.33;12.05;;;7.10;99.90;;;7.14;100.00;99911.72;5092713;28;20051;-69
2021/01/28 08:48:37;;;;;;;16.42;12.02;;;7.10;99.90;;;7.15;100.00;99913.47;5092666;28;20037;-68
2021/01/28 08:51:15;;;;;;;14.00;11.33;;;7.00;99.90;;;6.94;100.00;99906.59;5092538;28;20044;-68
2021/01/28 08:53:47;;;;;;;16.43;11.60;;;6.90;99.90;;;6.77;100.00;99891.78;5074673;28;20555;-68
2021/01/28 08:56:21;;;;;;;15.98;11.43;;;6.80;99.90;;;6.82;100.00;99895.25;5092708;28;20081;-68
2021/01/28 08:58:50;;;;;;;14.33;11.27;;;6.80;99.90;;;6.57;100.00;99856.84;5092704;28;20044;-68
2021/01/28 09:01:18;;;;;;;14.30;11.07;;;6.70;99.90;;;6.71;100.00;99874.28;5074477;28;20067;-68
2021/01/28 09:04:02;;;;;;;13.93;10.67;;;6.60;99.90;;;6.68;100.00;99855.91;5074212;28;20041;-68
2021/01/28 09:06:40;;;;;;;13.07;10.27;;;6.70;99.90;;;6.74;100.00;99881.25;5074698;28;20044;-68
2021/01/28 09:09:19;;;;;;;12.23;9.60;;;6.70;99.90;;;6.66;100.00;99878.69;5092524;28;20115;-67
2021/01/28 09:11:48;;;;;;;11.83;9.77;;;6.70;99.90;;;6.75;100.00;99906.69;5092535;28;20497;-69
2021/01/28 09:14:34;;;;;;;12.10;9.57;;;6.60;99.90;;;6.71;100.00;99862.91;5092311;28;20113;-69
2021/01/28 09:17:06;;;;;;;12.50;9.37;;;6.60;99.90;;;6.81;100.00;99868.13;5091649;28;20070;-68
2021/01/28 09:19:39;;;;;;;10.23;8.60;;;6.70;99.90;;;6.91;100.00;99905.72;5074337;28;20052;-68
2021/01/28 09:22:29;;;;;;;8.80;7.67;;;6.80;99.90;;;6.87;100.00;99885.59;5092219;28;20044;-69
2021/01/28 09:24:58;;;;;;;7.63;6.93;;;6.80;99.90;;;6.76;100.00;99874.25;5092454;28;20059;-67
2021/01/28 09:27:35;;;;;;;9.27;6.80;;;6.80;99.90;;;6.93;100.00;99888.19;5092296;28;20048;-67
2021/01/28 09:30:29;;;;;;;11.20;7.83;;;6.80;99.90;;;6.70;100.00;99897.94;5092273;28;20059;-67
2021/01/28 09:32:56;;;;;;;11.33;8.03;;;6.70;99.90;;;6.66;100.00;99883.09;5088808;28;20056;-68
2021/01/28 09:35:26;;;;;;;9.37;7.73;;;6.60;99.90;;;6.61;100.00;99872.59;5092208;28;20122;-68
2021/01/28 09:38:07;;;;;;;8.53;7.63;;;6.50;99.90;;;6.58;100.00;99863.84;5094402;28;20131;-68
2021/01/28 09:40:37;;;;;;;9.43;7.50;;;6.50;99.90;;;6.15;100.00;99782.66;5095436;28;20079;-68
2021/01/28 09:43:24;;;;;;;8.80;7.18;;;6.50;99.90;;;5.80;100.00;99718.91;5095708;28;20040;-68
2021/01/28 09:46:15;;;;;;;10.97;8.07;;;6.50;99.90;;;6.63;100.00;99833.16;5095811;28;20098;-68
2021/01/28 09:48:44;;;;;;;8.05;7.20;;;6.60;99.90;;;6.59;100.00;99855.06;5095017;28;20428;-68
2021/01/28 09:51:15;;;;;;;8.63;7.70;;;6.60;99.90;;;6.58;100.00;99850.72;5095655;28;20046;-68
2021/01/28 09:54:02;;;;;;;10.73;9.63;;;6.60;99.90;;;6.64;100.00;99843.66;5095546;28;20043;-68
2021/01/28 09:56:31;;;;;;;9.57;8.57;;;6.60;99.90;;;6.74;100.00;99860.25;5095683;28;20064;-68
2021/01/28 09:58:58;;;;;;;10.70;9.60;;;6.70;99.90;;;6.58;100.00;99838.44;5095617;28;20089;-68
2021/01/28 10:01:26;;;;;;;9.17;8.00;;;6.70;99.90;;;6.99;100.00;99870.63;5095419;28;20071;-68
2021/01/28 10:03:54;;;;;;;9.03;8.03;;;6.90;99.90;;;6.87;100.00;99870.69;5095303;28;20051;-69
2021/01/28 10:06:22;;;;;;;10.27;9.17;;;6.80;99.90;;;6.77;100.00;99848.00;5095218;28;20051;-69
2021/01/28 10:08:49;;;;;;;10.33;9.27;;;6.80;99.90;;;7.12;100.00;99881.94;5095307;28;20067;-69
2021/01/28 10:11:18;;;;;;;11.37;10.20;;;7.00;99.90;;;7.04;100.00;99870.59;5095213;28;20106;-69
2021/01/28 10:13:46;;;;;;;13.50;10.32;;;7.00;99.90;;;7.12;100.00;99859.13;5095288;28;20448;-69
2021/01/28 10:16:13;;;;;;;11.20;9.87;;;7.10;99.90;;;7.17;100.00;99882.78;5077002;28;20525;-69
2021/01/28 10:18:41;;;;;;;11.93;10.73;;;7.10;99.90;;;6.38;100.00;99767.66;5094703;28;20513;-69
2021/01/28 10:21:08;;;;;;;10.93;9.05;;;7.10;99.90;;;6.39;100.00;99781.63;5095124;28;20389;-69
2021/01/28 10:23:36;;;;;;;9.82;8.48;;;7.00;99.90;;;7.07;100.00;99891.59;5094849;28;20050;-69
2021/01/28 10:26:03;;;;;;;9.40;8.50;;;7.00;99.90;;;7.11;100.00;99891.56;5095044;28;20052;-69
2021/01/28 10:28:32;;;;;;;9.10;8.20;;;7.10;99.90;;;7.00;100.00;99879.38;5094868;28;20048;-69
2021/01/28 10:31:01;;;;;;;9.93;8.50;;;7.00;99.90;;;6.92;100.00;99889.06;5094771;28;20489;-69
2021/01/28 10:33:30;;;;;;;10.20;9.07;;;6.90;99.90;;;6.82;100.00;99880.34;5094697;28;20093;-69
2021/01/28 10:35:58;;;;;;;10.30;9.23;;;6.80;99.90;;;6.87;100.00;99875.94;5094886;28;20039;-67
2021/01/28 10:38:26;;;;;;;11.97;9.63;;;6.90;99.90;;;6.97;100.00;99887.28;5094809;28;20044;-69
2021/01/28 10:40:54;;;;;;;9.50;8.50;;;6.90;99.90;;;6.85;100.00;99884.75;5094450;28;20090;-69
2021/01/28 10:43:22;;;;;;;9.33;8.43;;;6.90;99.90;;;6.76;100.00;99882.13;5094485;28;20044;-69
2021/01/28 10:45:51;;;;;;;10.00;9.00;;;6.70;99.90;;;6.79;100.00;99879.50;5094341;28;20040;-69
2021/01/28 10:48:19;;;;;;;9.90;9.00;;;6.70;99.90;;;6.71;100.00;99860.28;5094246;28;20052;-69
2021/01/28 10:50:49;;;;;;;9.23;8.33;;;6.70;99.90;;;6.68;100.00;99868.19;5094319;28;20044;-69
2021/01/28 10:53:17;;;;;;;11.07;9.63;;;6.60;99.90;;;6.71;100.00;99844.50;5094676;28;20386;-69
2021/01/28 10:55:45;;;;;;;10.43;9.43;;;6.70;99.90;;;6.54;100.00;99810.47;5076156;28;20089;-69
2021/01/28 10:58:13;;;;;;;10.03;9.03;;;6.80;99.90;;;6.96;100.00;99882.91;5094257;28;20379;-69
2021/01/28 11:00:40;;;;;;;10.40;9.33;;;6.90;99.90;;;6.88;100.00;99887.34;5094213;28;20083;-69
2021/01/28 11:03:09;;;;;;;10.63;9.57;;;6.80;99.90;;;7.00;100.00;99874.13;5094200;28;20044;-69
2021/01/28 11:05:38;;;;;;;12.20;9.73;;;6.90;99.90;;;6.97;100.00;99868.88;5094247;28;20119;-69